Santos Dumont Airport

SBRJ · Rio de Janeiro, Brazil

METAR history SBRJ · Santos Dumont Airport

Below you see METARs of the last few days. Select a year to browse through older METARs, from the year 2007 onwards.

February 21, 2024

Time Code Weather Temp. Visibility Ceiling Wind METAR/SPECI
15:00
M
27 °C 5 km 1,000 ft 190° 190° 10 kt METAR SBAF 211800Z 19010KT 5000 -TSRA BR BKN010 BKN020 FEW025CB 27/25 Q1006
14:07
M
27 °C 6 km 1,300 ft 190° 190° 13 kt METAR SBAF 211707Z 19013KT 6000 -DZ BKN013 BKN025 FEW035TCU 27/24 Q1007
13:00
M
29 °C 10 km+ 2,500 ft 200° 200° 12 kt METAR SBAF 211600Z 20012KT 9999 SCT015 BKN025 FEW035TCU 29/25 Q1007
12:00
V
30 °C 10 km+ - 180° 180° 10 kt METAR SBAF 211500Z 18010KT 9999 FEW015 SCT025 FEW035TCU 30/25 Q1007
11:00
V
30 °C 10 km+ 10,000 ft 190° 190° 9 kt METAR SBAF 211400Z 19009KT 9999 FEW015 SCT020 BKN100 30/25 Q1008
10:00
V
30 °C 10 km+ 10,000 ft 180° 180° 3 kt METAR SBAF 211300Z 18003KT 9999 FEW015 BKN100 30/24 Q1008
09:00
V
28 °C 8 km 10,000 ft 220° 220° 4 kt METAR SBAF 211200Z 22004KT 8000 FEW015 BKN100 28/24 Q1008
08:00
V
25 °C 8 km 10,000 ft 240° 240° 3 kt METAR SBAF 211100Z 24003KT 8000 FEW015 BKN100 25/24 Q1007
07:00
M
25 °C 6 km 10,000 ft 340° 340° 2 kt METAR SBAF 211000Z 34002KT 6000 FEW015 BKN100 25/24 Q1007

February 20, 2024

Time Code Weather Temp. Visibility Ceiling Wind METAR/SPECI
21:00
M
25 °C 10 km+ 3,000 ft 280° 280° 2 kt METAR SBAF 210000Z 28002KT 9999 BKN030 25/24 Q1008
20:00
M
25 °C 8 km 2,600 ft 200° 200° 2 kt METAR SBAF 202300Z 20002KT 8000 BKN026 25/25 Q1007
19:00
M
25 °C 7 km 2,100 ft 360° 360° 1 kt METAR SBAF 202200Z 36001KT 7000 -RA BKN021 25/24 Q1007
18:00
M
25 °C 6 km - 170° 170° 3 kt METAR SBAF 202100Z 17003KT 140V200 6000 -RA FEW019 SCT030 25/24 Q1006
17:00
M
26 °C 5 km 5,000 ft 190° 190° 4 kt METAR SBAF 202000Z 19004KT 5000 2000W -RA BR SCT020 BKN050 26/24 Q1006
16:00
M
27 °C 6 km 5,000 ft Var Var 2 kt METAR SBAF 201900Z VRB02KT 6000 2000W -RA SCT020 OVC050 27/24 Q1006
15:00
V
27 °C 9 km 10,000 ft 210° 210° 6 kt METAR SBAF 201800Z 21006KT 9000 SCT015 FEW030TCU BKN100 27/23 Q1006
14:00
V
28 °C 9 km 10,000 ft 200° 200° 7 kt METAR SBAF 201700Z 20007KT 9000 SCT020 BKN100 28/23 Q1006
13:00
V
29 °C 9 km 10,000 ft 200° 200° 9 kt METAR SBAF 201600Z 20009KT 9000 SCT020 BKN100 29/23 Q1007
12:00
V
31 °C 9 km 10,000 ft 220° 220° 2 kt METAR SBAF 201500Z 22002KT 9000 SCT020 BKN100 31/23 Q1007
11:00
V
29 °C 8 km 10,000 ft 340° 340° 4 kt METAR SBAF 201400Z 34004KT 8000 SCT020 BKN100 29/23 Q1008
10:00
V
29 °C 8 km 10,000 ft 070° 070° 4 kt METAR SBAF 201300Z 07004KT 8000 SCT020 BKN100 29/23 Q1008
09:00
M
28 °C 7 km 10,000 ft 130° 130° 3 kt METAR SBAF 201200Z 13003KT 7000 SCT015 BKN100 28/24 Q1008
08:00
M
26 °C 5 km 1,200 ft 060° 060° 3 kt METAR SBAF 201100Z 06003KT 5000 BR BKN012 26/24 Q1008
07:00
M
25 °C 7 km - 350° 350° 2 kt METAR SBAF 201000Z 35002KT 7000 SCT012 25/24 Q1007

February 19, 2024

Time Code Weather Temp. Visibility Ceiling Wind METAR/SPECI
21:00
V
25 °C 10 km+ 4,000 ft 050° 050° 3 kt METAR SBAF 200000Z 05003KT 9999 FEW020 BKN040 25/23 Q1009
20:00
V
25 °C 10 km+ 4,000 ft 080° 080° 2 kt METAR SBAF 192300Z 08002KT 9999 FEW020 BKN040 25/23 Q1008
19:00
V
26 °C 10 km+ 4,000 ft 070° 070° 6 kt METAR SBAF 192200Z 07006KT 9999 SCT022 BKN040 26/23 Q1008
18:00
M
27 °C 10 km+ 3,000 ft 310° 310° 2 kt METAR SBAF 192100Z 31002KT 9999 SCT022 BKN030 27/24 Q1008
17:00
V
28 °C 10 km+ 4,000 ft 190° 190° 7 kt METAR SBAF 192000Z 19007KT 9999 FEW022 BKN040 28/23 Q1007
16:00
V
28 °C 10 km+ 7,000 ft 200° 200° 14 kt METAR SBAF 191900Z 20014KT 9999 FEW030TCU BKN070 28/23 Q1011
15:00
V
29 °C 10 km+ - 200° 200° 18 kt METAR SBAF 191800Z 20018KT 9999 FEW030TCU SCT030 29/22 Q1007
14:00
V
30 °C 10 km+ - 200° 200° 17 kt METAR SBAF 191700Z 20017KT 9999 FEW030TCU SCT030 30/23 Q1007
13:00
V
30 °C 10 km+ - 200° 200° 14 kt METAR SBAF 191600Z 20014KT 9999 SCT040 30/23 Q1007
12:00
V
32 °C 10 km+ - 240° 240° 5 kt METAR SBAF 191500Z 24005KT 150V310 9999 SCT040 32/23 Q1008
11:00
V
32 °C 10 km+ - 340° 340° 3 kt METAR SBAF 191400Z 34003KT 9999 SCT030 32/22 Q1008
10:00
V
30 °C 10 km+ - 010° 010° 3 kt METAR SBAF 191300Z 01003KT 9999 SCT030 30/22 Q1009
09:00
V
29 °C 10 km+ - 270° 270° 2 kt METAR SBAF 191200Z 27002KT 9999 SCT030 29/23 Q1009
08:00
V
28 °C 10 km+ - Var Var 2 kt METAR SBAF 191100Z VRB02KT 9999 FEW030 28/23 Q1009
07:00
V
26 °C 10 km+ - 270° 270° 1 kt METAR SBAF 191000Z 27001KT 9999 FEW040 SCT083 26/23 Q1009